Terminal Aerodrome Forecast
Issued by NWS

Home | Current Version | Previous Version | Graphics & Text | Print | Product List | Glossary On
Versions: 1 2 3 4 5 6 7 8 9 10 11 12 13 14 15
000
FTUS43 KUNR 272320
TAFGCC
TAF
KGCC 272320Z 2800/2824 31012KT P6SM SCT080
     FM280600 27008KT P6SM FEW250
     FM281400 32012G22KT P6SM SCT100
     FM281800 32016G26KT P6SM SCT080
     FM282200 32020G30KT P6SM BKN080=

USA.gov is the U.S. government's official web portal to all federal, state and local government web resources and services.